Time;durP1;ratioP1;P1;durP2;ratioP2;P2;SDS_P1;SDS_P2;PMS_P1;PMS_P2;Temp;Humidity;BMP_temperature;BMP_pressure;BME280_temperature;BME280_humidity;BME280_pressure;Samples;Min_cycle;Max_cycle;Signal;HPM_P1;HPM_P2
2023/11/11 00:00:47;;;;;;;2.10;1.20;;;3.80;99.90;;;;;;1951193;72;27816;-87
2023/11/11 00:03:36;;;;;;;0.90;0.90;;;3.80;99.90;;;;;;1885322;75;25814;-89
2023/11/11 00:06:24;;;;;;;3.93;1.10;;;3.80;99.90;;;;;;1896187;75;26048;-87
2023/11/11 00:11:54;;;;;;;0.73;0.73;;;3.90;99.90;;;;;;1938145;72;27106;-87
2023/11/11 00:14:42;;;;;;;0.70;0.70;;;3.90;99.90;;;;;;1908336;75;25501;-88
2023/11/11 00:20:13;;;;;;;1.10;1.00;;;3.60;99.90;;;;;;1934150;72;27652;-86
2023/11/11 00:23:05;;;;;;;1.90;0.90;;;3.60;99.90;;;;;;1835780;77;25224;-86
2023/11/11 00:28:31;;;;;;;0.80;0.80;;;3.50;99.90;;;;;;1944356;72;26997;-86
2023/11/11 00:31:20;;;;;;;1.23;1.13;;;3.40;99.90;;;;;;1882325;75;25221;-86
2023/11/11 00:34:09;;;;;;;2.93;1.50;;;3.40;99.90;;;;;;1905229;73;25266;-88
2023/11/11 00:36:58;;;;;;;1.00;0.90;;;3.40;99.90;;;;;;1895794;73;25296;-88
2023/11/11 00:39:47;;;;;;;1.33;0.90;;;3.50;99.90;;;;;;1965154;72;25273;-88
2023/11/11 00:42:35;;;;;;;0.70;0.70;;;3.50;99.90;;;;;;1936827;73;25269;-88
2023/11/11 00:45:24;;;;;;;0.70;0.70;;;3.50;99.90;;;;;;1916022;73;25218;-88
2023/11/11 00:48:12;;;;;;;0.70;0.70;;;3.50;99.90;;;;;;1935284;73;25226;-89
2023/11/11 00:53:47;;;;;;;0.70;0.70;;;3.50;99.90;;;;;;1933118;72;27094;-86
2023/11/11 00:56:36;;;;;;;0.93;0.70;;;3.40;99.90;;;;;;1897414;75;25339;-87
2023/11/11 00:59:25;;;;;;;0.80;0.80;;;3.40;99.90;;;;;;1900532;75;25551;-87
2023/11/11 01:02:13;;;;;;;0.67;0.67;;;3.40;99.90;;;;;;1907706;75;25238;-87
2023/11/11 01:05:01;;;;;;;1.90;0.90;;;3.40;99.90;;;;;;1911696;75;25240;-89
2023/11/11 01:07:50;;;;;;;0.60;0.60;;;3.50;99.90;;;;;;1894790;75;25292;-88
2023/11/11 01:10:40;;;;;;;0.63;0.63;;;3.40;99.90;;;;;;1882790;75;25302;-89
2023/11/11 01:13:28;;;;;;;0.40;0.40;;;3.40;99.90;;;;;;1907718;74;25318;-87
2023/11/11 01:16:17;;;;;;;1.07;0.90;;;3.40;99.90;;;;;;1914955;74;25210;-89
2023/11/11 01:19:06;;;;;;;0.77;0.77;;;3.40;99.90;;;;;;1915166;74;25288;-89
2023/11/11 01:21:56;;;;;;;0.70;0.70;;;3.40;99.90;;;;;;1901488;74;25230;-89
2023/11/11 01:24:45;;;;;;;3.23;0.73;;;3.50;99.90;;;;;;1910561;75;25756;-89
2023/11/11 01:27:35;;;;;;;0.70;0.70;;;3.50;99.90;;;;;;1894971;74;25261;-87
2023/11/11 01:30:25;;;;;;;0.80;0.80;;;3.50;99.90;;;;;;1909579;75;25251;-87
2023/11/11 01:35:53;;;;;;;3.53;0.93;;;3.40;99.90;;;;;;1926981;72;27092;-87
2023/11/11 01:38:41;;;;;;;0.80;0.80;;;3.40;99.90;;;;;;1929314;73;25583;-89
2023/11/11 01:41:30;;;;;;;1.20;0.80;;;3.30;99.90;;;;;;1876540;76;25290;-87
2023/11/11 01:44:18;;;;;;;1.50;1.30;;;3.40;99.90;;;;;;1819251;77;25267;-89
2023/11/11 01:47:07;;;;;;;0.80;0.80;;;3.40;99.90;;;;;;1847037;76;25345;-87
2023/11/11 01:49:56;;;;;;;1.20;0.90;;;3.40;99.90;;;;;;1834026;76;25590;-88
2023/11/11 01:52:45;;;;;;;0.83;0.83;;;3.40;99.90;;;;;;1861201;76;26580;-89
2023/11/11 01:55:34;;;;;;;2.70;1.10;;;3.40;99.90;;;;;;1833004;76;25381;-89
2023/11/11 01:58:23;;;;;;;1.53;1.30;;;3.40;99.90;;;;;;1828245;76;25347;-87
2023/11/11 02:01:12;;;;;;;2.10;0.90;;;3.30;99.90;;;;;;1825773;77;25248;-89
2023/11/11 02:04:00;;;;;;;3.57;1.20;;;3.30;99.90;;;;;;1856251;76;25740;-89
2023/11/11 02:06:50;;;;;;;2.50;1.00;;;3.30;99.90;;;;;;1911397;73;25208;-87
2023/11/11 02:09:41;;;;;;;3.17;1.17;;;3.30;99.90;;;;;;1921365;73;25233;-86
2023/11/11 02:12:30;;;;;;;1.83;1.17;;;3.30;99.90;;;;;;1846406;76;25316;-87
2023/11/11 02:18:03;;;;;;;1.50;1.20;;;3.40;99.90;;;;;;1932595;72;27016;-86
2023/11/11 02:23:35;;;;;;;1.83;1.00;;;3.30;99.90;;;;;;1920269;72;27107;-86
2023/11/11 02:29:02;;;;;;;0.93;0.90;;;3.40;99.90;;;;;;1923772;72;27079;-87
2023/11/11 02:31:51;;;;;;;1.00;1.00;;;3.40;99.90;;;;;;1892555;75;25258;-88
2023/11/11 02:34:39;;;;;;;1.77;1.10;;;3.40;99.90;;;;;;1895429;75;25537;-88
2023/11/11 02:37:27;;;;;;;2.27;1.10;;;3.40;99.90;;;;;;1896219;75;25272;-87
2023/11/11 02:40:16;;;;;;;1.80;1.23;;;3.40;99.90;;;;;;1850719;76;25264;-86
2023/11/11 02:45:45;;;;;;;1.27;1.10;;;3.40;99.90;;;;;;1940920;72;27088;-86
2023/11/11 02:48:33;;;;;;;1.00;1.00;;;3.30;99.90;;;;;;1912567;75;25295;-88
2023/11/11 02:54:06;;;;;;;0.90;0.90;;;3.40;99.90;;;;;;1939566;72;27072;-87
2023/11/11 02:56:55;;;;;;;1.17;1.07;;;3.40;99.90;;;;;;1905879;73;25250;-86
2023/11/11 02:59:44;;;;;;;1.30;1.10;;;3.30;99.90;;;;;;1882079;73;25705;-88
2023/11/11 03:02:32;;;;;;;3.67;1.20;;;3.30;99.90;;;;;;1880972;75;25326;-88
2023/11/11 03:05:20;;;;;;;2.13;1.03;;;3.30;99.90;;;;;;1910999;75;25275;-87
2023/11/11 03:08:08;;;;;;;3.33;1.07;;;3.40;99.90;;;;;;1911530;73;25287;-88
2023/11/11 03:10:57;;;;;;;0.90;0.90;;;3.30;99.90;;;;;;1872343;76;25319;-89
2023/11/11 03:13:45;;;;;;;1.13;1.00;;;3.30;99.90;;;;;;1814273;77;25276;-89
2023/11/11 03:16:38;;;;;;;0.90;0.90;;;3.30;99.90;;;;;;1922102;73;25689;-89
2023/11/11 03:19:27;;;;;;;1.70;1.00;;;3.30;99.90;;;;;;1846202;76;25847;-89
2023/11/11 03:22:15;;;;;;;1.77;1.20;;;3.30;99.90;;;;;;1842736;77;25350;-89
2023/11/11 03:25:04;;;;;;;0.90;0.90;;;3.30;99.90;;;;;;1936020;73;25208;-88
2023/11/11 03:27:53;;;;;;;1.63;0.87;;;3.30;99.90;;;;;;1932068;73;25877;-88
2023/11/11 03:30:41;;;;;;;2.67;0.90;;;3.20;99.90;;;;;;1907122;73;25222;-88
2023/11/11 03:36:09;;;;;;;0.80;0.80;;;3.30;99.90;;;;;;1948286;72;27041;-87
2023/11/11 03:38:58;;;;;;;1.27;0.90;;;3.30;99.90;;;;;;1902385;75;25702;-88
2023/11/11 03:41:46;;;;;;;0.87;0.87;;;3.30;99.90;;;;;;1854212;76;25734;-87
2023/11/11 03:44:35;;;;;;;0.90;0.90;;;3.20;99.90;;;;;;1835060;77;25345;-88
2023/11/11 03:47:23;;;;;;;0.80;0.80;;;3.30;99.90;;;;;;1844541;77;26113;-87
2023/11/11 03:50:12;;;;;;;4.53;0.80;;;3.30;99.90;;;;;;1876167;76;25239;-88
2023/11/11 03:53:00;;;;;;;0.67;0.67;;;3.30;99.90;;;;;;1886406;74;25749;-89
2023/11/11 03:55:49;;;;;;;0.73;0.73;;;3.30;99.90;;;;;;1835681;78;26073;-87
2023/11/11 04:01:18;;;;;;;2.63;0.77;;;3.20;99.90;;;;;;1927194;72;27574;-86
2023/11/11 04:06:46;;;;;;;1.70;0.80;;;3.20;99.90;;;;;;1938883;72;27734;-86
2023/11/11 04:09:35;;;;;;;0.67;0.67;;;3.20;99.90;;;;;;1896623;75;25548;-88
2023/11/11 04:15:10;;;;;;;0.60;0.60;;;3.20;99.90;;;;;;1956313;72;27663;-86
2023/11/11 04:17:59;;;;;;;0.70;0.70;;;3.20;99.90;;;;;;1913728;75;25669;-88
2023/11/11 04:20:48;;;;;;;0.70;0.70;;;3.20;99.90;;;;;;1929291;73;25217;-89
2023/11/11 04:23:36;;;;;;;0.70;0.70;;;3.20;99.90;;;;;;1925287;73;25207;-86
2023/11/11 04:29:05;;;;;;;2.07;0.80;;;3.10;99.90;;;;;;1931088;72;27632;-86
2023/11/11 04:31:53;;;;;;;0.70;0.70;;;3.20;99.90;;;;;;1910355;74;25276;-86
2023/11/11 04:34:43;;;;;;;0.70;0.70;;;3.20;99.90;;;;;;1900758;75;25233;-88
2023/11/11 04:37:32;;;;;;;0.80;0.80;;;3.20;99.90;;;;;;1895469;75;25730;-86
2023/11/11 04:40:21;;;;;;;0.70;0.70;;;3.20;99.90;;;;;;1902435;75;25204;-86
2023/11/11 04:43:10;;;;;;;1.33;0.80;;;3.20;99.90;;;;;;1884229;75;25208;-86
2023/11/11 04:45:59;;;;;;;0.67;0.67;;;3.30;99.90;;;;;;1867437;75;25785;-86
2023/11/11 04:52:00;;;;;;;0.70;0.70;;;3.40;99.90;;;;;;1942777;72;27075;-87
2023/11/11 04:54:49;;;;;;;0.60;0.60;;;3.40;99.90;;;;;;1895500;75;25626;-86
2023/11/11 05:00:19;;;;;;;0.70;0.70;;;3.30;99.90;;;;;;1959518;72;27057;-86
2023/11/11 05:03:08;;;;;;;0.70;0.70;;;3.30;99.90;;;;;;1941055;73;25228;-88
2023/11/11 05:05:57;;;;;;;1.73;0.63;;;3.20;99.90;;;;;;1929955;72;25488;-88
2023/11/11 05:08:46;;;;;;;2.63;1.13;;;3.20;99.90;;;;;;1946242;73;25294;-88
2023/11/11 05:11:34;;;;;;;0.80;0.80;;;3.20;99.90;;;;;;1919862;73;25254;-88
2023/11/11 05:14:23;;;;;;;0.80;0.80;;;3.20;99.90;;;;;;1923716;73;25233;-88
2023/11/11 05:17:13;;;;;;;0.80;0.80;;;3.20;99.90;;;;;;1937422;73;25228;-88
2023/11/11 05:20:02;;;;;;;2.77;0.80;;;3.20;99.90;;;;;;1935475;73;26267;-84
2023/11/11 05:22:51;;;;;;;1.20;1.10;;;3.20;99.90;;;;;;1927904;73;25211;-88
2023/11/11 05:28:23;;;;;;;1.70;0.80;;;3.30;99.90;;;;;;1958684;72;27069;-86
2023/11/11 05:33:53;;;;;;;0.70;0.70;;;3.30;99.90;;;;;;1930511;72;27171;-86
2023/11/11 05:36:43;;;;;;;0.80;0.80;;;3.40;99.90;;;;;;1897850;75;25624;-86
2023/11/11 05:42:24;;;;;;;1.37;0.80;;;3.40;99.90;;;;;;1938985;72;27687;-88
2023/11/11 05:45:13;;;;;;;1.63;0.90;;;3.40;99.90;;;;;;1926205;73;25244;-88
2023/11/11 05:48:02;;;;;;;0.77;0.77;;;3.30;99.90;;;;;;1908318;75;25258;-88
2023/11/11 05:50:51;;;;;;;1.30;0.87;;;3.30;99.90;;;;;;1901526;75;25251;-88
2023/11/11 05:53:40;;;;;;;1.00;0.90;;;3.30;99.90;;;;;;1928293;73;25270;-88
2023/11/11 05:56:28;;;;;;;0.73;0.73;;;3.30;99.90;;;;;;1875582;76;25837;-88
2023/11/11 05:59:17;;;;;;;1.33;0.93;;;3.30;99.90;;;;;;1840377;77;25247;-88
2023/11/11 06:02:06;;;;;;;0.90;0.80;;;3.30;99.90;;;;;;1852365;77;25286;-88
2023/11/11 06:04:55;;;;;;;0.80;0.80;;;3.30;99.90;;;;;;1857836;76;25772;-88
2023/11/11 06:10:27;;;;;;;1.07;0.73;;;3.30;99.90;;;;;;1945237;72;27586;-86
2023/11/11 06:13:16;;;;;;;1.23;0.90;;;3.30;99.90;;;;;;1879019;75;25245;-88
2023/11/11 06:16:06;;;;;;;0.70;0.70;;;3.40;99.90;;;;;;1882330;75;25307;-88
2023/11/11 06:21:35;;;;;;;1.40;1.03;;;3.40;99.90;;;;;;1896917;74;27530;-87
2023/11/11 06:24:24;;;;;;;2.60;0.97;;;3.40;99.90;;;;;;1845442;77;25351;-88
2023/11/11 06:27:13;;;;;;;0.97;0.87;;;3.30;99.90;;;;;;1842382;77;25240;-89
2023/11/11 06:30:01;;;;;;;2.53;0.97;;;3.30;99.90;;;;;;1838505;77;25244;-88
2023/11/11 06:32:50;;;;;;;1.57;1.20;;;3.30;99.90;;;;;;1845637;76;25255;-88
2023/11/11 06:35:39;;;;;;;1.97;1.10;;;3.30;99.90;;;;;;1848165;76;25211;-88
2023/11/11 06:38:28;;;;;;;1.30;1.13;;;3.30;99.90;;;;;;1844784;77;25277;-88
2023/11/11 06:41:19;;;;;;;3.77;1.80;;;3.20;99.90;;;;;;1865479;76;25245;-88
2023/11/11 06:44:09;;;;;;;4.00;1.80;;;3.20;99.90;;;;;;1818297;78;25848;-88
2023/11/11 06:46:57;;;;;;;4.97;2.07;;;3.30;99.90;;;;;;1813276;79;26540;-88
2023/11/11 06:52:25;;;;;;;4.87;2.03;;;3.30;99.90;;;;;;1939261;72;27146;-86
2023/11/11 06:55:13;;;;;;;4.73;1.80;;;3.30;99.90;;;;;;1891808;74;25803;-86
2023/11/11 07:00:48;;;;;;;11.97;4.20;;;3.40;99.90;;;;;;1942603;72;27052;-86
2023/11/11 07:03:36;;;;;;;9.13;2.60;;;3.30;99.90;;;;;;1902160;73;25650;-88
2023/11/11 07:06:25;;;;;;;3.37;2.10;;;3.40;99.90;;;;;;1918790;73;25725;-88
2023/11/11 07:09:14;;;;;;;5.40;2.23;;;3.40;99.90;;;;;;1864192;76;26198;-87
2023/11/11 07:12:02;;;;;;;5.10;3.63;;;3.40;99.90;;;;;;1813527;78;25302;-88
2023/11/11 07:14:50;;;;;;;2.77;1.90;;;3.40;99.90;;;;;;1897155;73;25270;-88
2023/11/11 07:17:41;;;;;;;6.10;2.10;;;3.40;99.90;;;;;;1856687;76;25535;-88
2023/11/11 07:20:29;;;;;;;4.43;2.10;;;3.40;99.90;;;;;;1824478;78;25337;-88
2023/11/11 07:23:18;;;;;;;4.50;1.90;;;3.40;99.90;;;;;;1845237;76;25259;-88
2023/11/11 07:26:07;;;;;;;5.50;2.47;;;3.40;99.90;;;;;;1859898;76;25205;-88
2023/11/11 07:28:55;;;;;;;4.47;2.10;;;3.40;99.90;;;;;;1916743;73;25666;-88
2023/11/11 07:34:23;;;;;;;7.63;2.27;;;3.40;99.90;;;;;;1925643;72;26982;-86
2023/11/11 07:37:12;;;;;;;3.37;1.80;;;3.40;99.90;;;;;;1895552;73;25332;-88
2023/11/11 07:42:39;;;;;;;2.73;1.60;;;3.40;99.90;;;;;;1938573;72;27086;-86
2023/11/11 07:45:28;;;;;;;5.20;2.23;;;3.40;99.90;;;;;;1878062;76;25241;-86
2023/11/11 07:48:18;;;;;;;2.90;1.80;;;3.40;99.90;;;;;;1872149;76;25305;-88
2023/11/11 07:51:07;;;;;;;3.27;1.70;;;3.50;99.90;;;;;;1880949;76;25263;-86
2023/11/11 07:53:55;;;;;;;6.47;2.33;;;3.50;99.90;;;;;;1877841;76;25273;-88
2023/11/11 07:56:44;;;;;;;5.23;2.10;;;3.60;99.90;;;;;;1879108;76;25306;-88
2023/11/11 07:59:33;;;;;;;6.97;2.30;;;3.60;99.90;;;;;;1872419;76;25737;-88
2023/11/11 08:02:24;;;;;;;8.37;2.20;;;3.60;99.90;;;;;;1869926;76;25305;-89
2023/11/11 08:05:12;;;;;;;3.57;1.80;;;3.70;99.90;;;;;;1840390;77;25316;-88
2023/11/11 08:08:00;;;;;;;9.03;2.47;;;3.60;99.90;;;;;;1841127;77;25764;-88
2023/11/11 08:10:50;;;;;;;6.30;2.00;;;3.60;99.90;;;;;;1870281;76;25329;-88
2023/11/11 08:13:39;;;;;;;3.40;1.93;;;3.60;99.90;;;;;;1866050;76;25264;-89
2023/11/11 08:16:28;;;;;;;4.73;2.10;;;3.70;99.90;;;;;;1873239;76;25271;-87
2023/11/11 08:19:18;;;;;;;3.43;2.23;;;3.60;99.90;;;;;;1877557;76;25536;-88
2023/11/11 08:24:47;;;;;;;5.83;1.93;;;3.70;99.90;;;;;;1957107;72;26929;-86
2023/11/11 08:27:35;;;;;;;6.27;2.33;;;3.60;99.90;;;;;;1921523;73;25625;-88
2023/11/11 08:30:24;;;;;;;3.50;2.30;;;3.70;99.90;;;;;;1918275;73;25256;-88
2023/11/11 08:33:13;;;;;;;7.13;2.20;;;3.70;99.90;;;;;;1929207;72;25314;-87
2023/11/11 08:36:02;;;;;;;5.03;1.80;;;3.70;99.90;;;;;;1933863;73;25275;-86
2023/11/11 08:38:50;;;;;;;3.90;2.07;;;3.70;99.90;;;;;;1929376;73;25227;-86
2023/11/11 08:41:38;;;;;;;4.10;2.20;;;3.80;99.90;;;;;;1924025;73;25175;-86
2023/11/11 08:44:28;;;;;;;3.60;2.00;;;3.90;99.90;;;;;;1915330;73;25219;-88
2023/11/11 08:47:16;;;;;;;7.63;2.07;;;3.90;99.90;;;;;;1920217;73;25117;-88
2023/11/11 08:50:06;;;;;;;5.23;2.10;;;3.90;99.90;;;;;;1918130;73;25252;-88
2023/11/11 08:52:54;;;;;;;9.30;2.50;;;4.00;99.90;;;;;;1932798;73;25151;-89
2023/11/11 08:58:23;;;;;;;4.83;2.40;;;4.00;99.90;;;;;;1941315;72;27681;-88
2023/11/11 09:03:55;;;;;;;3.80;1.80;;;4.20;99.90;;;;;;1967065;72;27145;-87
2023/11/11 09:06:44;;;;;;;6.47;2.23;;;4.40;99.90;;;;;;1916299;73;25263;-89
2023/11/11 09:09:32;;;;;;;3.67;2.00;;;4.30;99.90;;;;;;1925172;73;25319;-88
2023/11/11 09:12:23;;;;;;;3.03;2.10;;;4.30;99.90;;;;;;1923376;73;25375;-89
2023/11/11 09:15:13;;;;;;;5.67;2.23;;;4.10;99.90;;;;;;1914290;73;25316;-88
2023/11/11 09:18:01;;;;;;;4.50;1.90;;;4.20;99.90;;;;;;1914496;73;25297;-89
2023/11/11 09:20:51;;;;;;;5.57;1.97;;;4.30;99.90;;;;;;1915088;73;25292;-88
2023/11/11 09:23:39;;;;;;;4.73;1.90;;;4.30;99.90;;;;;;1913856;73;25689;-88
2023/11/11 09:26:28;;;;;;;6.80;1.83;;;4.20;99.90;;;;;;1925714;73;25279;-88
2023/11/11 09:29:19;;;;;;;5.87;2.27;;;4.20;99.90;;;;;;1925152;73;25257;-88
2023/11/11 09:32:08;;;;;;;5.83;3.17;;;4.20;99.90;;;;;;1922479;73;25221;-89
2023/11/11 09:37:36;;;;;;;6.17;2.90;;;4.40;99.90;;;;;;1913401;72;27478;-86
2023/11/11 09:43:09;;;;;;;4.40;2.07;;;4.40;99.90;;;;;;1927702;72;27164;-87
2023/11/11 09:46:17;;;;;;;2.50;1.53;;;4.40;99.90;;;;;;1878466;75;25220;-86
2023/11/11 10:02:15;;;;;;;13.17;4.13;;;4.40;99.90;;;;;;1910193;74;27066;-87
2023/11/11 10:07:46;;;;;;;5.73;3.97;;;4.60;99.90;;;;;;1939720;72;27092;-86
2023/11/11 10:10:34;;;;;;;5.07;2.33;;;4.70;99.90;;;;;;1854256;76;25303;-88
2023/11/11 10:16:18;;;;;;;3.10;1.53;;;4.60;99.90;;;;;;1941338;72;27127;-88
2023/11/11 10:19:10;;;;;;;2.57;1.50;;;4.70;99.90;;;;;;1905090;75;25849;-88
2023/11/11 10:21:58;;;;;;;2.40;1.40;;;4.90;99.90;;;;;;1902194;75;25770;-88
2023/11/11 10:24:47;;;;;;;1.97;1.50;;;4.80;99.90;;;;;;1887983;75;25227;-89
2023/11/11 10:27:36;;;;;;;1.93;1.40;;;4.80;99.90;;;;;;1912500;75;25226;-88
2023/11/11 10:30:27;;;;;;;3.33;1.70;;;5.00;99.90;;;;;;1901844;75;25345;-88
2023/11/11 10:33:15;;;;;;;1.50;1.40;;;5.00;99.90;;;;;;1901398;75;25819;-86
2023/11/11 10:36:06;;;;;;;1.37;1.20;;;4.90;99.90;;;;;;1900814;75;25265;-88
2023/11/11 10:38:56;;;;;;;1.20;1.20;;;4.90;99.90;;;;;;1866056;76;25277;-89
2023/11/11 10:44:26;;;;;;;1.40;1.30;;;4.90;99.90;;;;;;1952652;72;27661;-88
2023/11/11 10:47:14;;;;;;;2.77;2.00;;;4.90;99.90;;;;;;1920971;73;25515;-87
2023/11/11 10:50:04;;;;;;;1.70;1.53;;;4.90;99.90;;;;;;1925482;73;26470;-87
2023/11/11 10:52:54;;;;;;;1.10;1.10;;;5.10;99.90;;;;;;1935027;72;25308;-87
2023/11/11 10:55:46;;;;;;;1.73;0.90;;;5.10;99.90;;;;;;1930979;72;25251;-87
2023/11/11 10:58:52;;;;;;;1.80;0.97;;;5.10;99.90;;;;;;1937543;72;25236;-87
2023/11/11 11:04:24;;;;;;;0.90;0.90;;;5.10;99.90;;;;;;1945162;72;27103;-89
2023/11/11 11:10:01;;;;;;;0.90;0.90;;;5.20;99.90;;;;;;1958264;72;27876;-87
2023/11/11 11:12:52;;;;;;;1.33;1.23;;;5.30;99.90;;;;;;1943985;73;25807;-89
2023/11/11 11:15:44;;;;;;;0.80;0.80;;;5.40;99.90;;;;;;1907073;73;25263;-88
2023/11/11 11:18:32;;;;;;;1.00;1.00;;;5.70;99.90;;;;;;1920921;74;25256;-86
2023/11/11 11:21:22;;;;;;;0.80;0.80;;;5.80;99.90;;;;;;1927930;73;25778;-88
2023/11/11 11:24:12;;;;;;;0.90;0.90;;;5.70;99.90;;;;;;1921892;73;25703;-87
2023/11/11 11:27:01;;;;;;;0.90;0.90;;;5.90;99.90;;;;;;1934365;73;25128;-87
2023/11/11 11:29:51;;;;;;;1.07;0.97;;;5.80;99.90;;;;;;1910842;74;25243;-87
2023/11/11 11:32:42;;;;;;;2.03;1.60;;;5.70;99.90;;;;;;1923788;73;25316;-87
2023/11/11 11:35:30;;;;;;;1.30;1.10;;;5.60;99.90;;;;;;1918442;74;25281;-87
2023/11/11 11:38:27;;;;;;;1.50;1.10;;;5.80;99.90;;;;;;1944261;73;25696;-86
2023/11/11 11:44:01;;;;;;;2.93;1.50;;;5.90;99.90;;;;;;1935393;72;27174;-87
2023/11/11 11:46:50;;;;;;;2.73;1.83;;;5.80;99.90;;;;;;1900902;75;25259;-86
2023/11/11 11:52:24;;;;;;;4.30;2.40;;;5.80;99.90;;;;;;2028111;69;27031;-87
2023/11/11 11:55:14;;;;;;;1.40;1.30;;;5.80;99.90;;;;;;1981333;71;25199;-87
2023/11/11 11:58:03;;;;;;;1.33;1.20;;;5.80;99.90;;;;;;1978690;71;25195;-87
2023/11/11 12:00:53;;;;;;;1.10;1.10;;;5.70;99.90;;;;;;1997441;71;25701;-86
2023/11/11 12:03:42;;;;;;;1.10;1.00;;;5.70;99.90;;;;;;1989899;71;25182;-87
2023/11/11 12:06:33;;;;;;;2.00;1.10;;;5.70;99.90;;;;;;1984038;71;25263;-86
2023/11/11 12:09:22;;;;;;;1.33;1.23;;;5.70;99.90;;;;;;1993995;71;25241;-87
2023/11/11 12:12:11;;;;;;;1.63;1.40;;;5.70;99.90;;;;;;1977953;72;25180;-87
2023/11/11 12:14:59;;;;;;;1.97;1.37;;;5.60;99.90;;;;;;1978112;71;25139;-87
2023/11/11 12:17:48;;;;;;;1.97;1.67;;;5.70;99.90;;;;;;1981663;71;25156;-87
2023/11/11 12:20:41;;;;;;;2.57;1.40;;;5.90;99.90;;;;;;1992071;71;25661;-87
2023/11/11 12:23:29;;;;;;;1.23;1.13;;;6.00;99.90;;;;;;1987834;71;25129;-87
2023/11/11 12:26:19;;;;;;;1.53;1.40;;;5.90;99.90;;;;;;1981185;71;25655;-87
2023/11/11 12:29:07;;;;;;;1.10;1.10;;;5.90;99.90;;;;;;1989916;71;25272;-88
2023/11/11 12:34:35;;;;;;;2.10;1.90;;;5.90;99.90;;;;;;1938500;72;27041;-87
2023/11/11 12:37:24;;;;;;;1.97;1.80;;;5.90;99.90;;;;;;1918071;73;25318;-87
2023/11/11 12:40:13;;;;;;;1.40;1.30;;;5.70;99.90;;;;;;1903967;75;25246;-87
2023/11/11 12:43:02;;;;;;;1.40;1.30;;;5.70;99.90;;;;;;1861961;76;25766;-87
2023/11/11 12:45:51;;;;;;;1.73;1.40;;;5.80;99.90;;;;;;1877564;75;25393;-87
2023/11/11 12:48:40;;;;;;;1.53;1.43;;;5.80;99.90;;;;;;1855283;75;25744;-87
2023/11/11 12:51:29;;;;;;;1.60;1.30;;;5.80;99.90;;;;;;1884336;74;25888;-87
2023/11/11 12:54:19;;;;;;;2.17;1.50;;;5.70;99.90;;;;;;1867429;75;25687;-87
2023/11/11 12:57:08;;;;;;;1.23;1.13;;;5.60;99.90;;;;;;1868641;74;25304;-87
2023/11/11 12:59:57;;;;;;;1.20;1.10;;;5.60;99.90;;;;;;1887071;74;26083;-87
2023/11/11 13:05:26;;;;;;;2.27;1.20;;;5.60;99.90;;;;;;1937635;72;27595;-87
2023/11/11 13:08:21;;;;;;;0.97;0.97;;;5.60;99.90;;;;;;1870801;76;25718;-87
2023/11/11 13:11:05;;;;;;;1.30;1.20;;;5.60;99.90;;;;;;1809167;78;25768;-87
2023/11/11 13:16:34;;;;;;;1.33;1.20;;;5.80;99.90;;;;;;1938143;72;27094;-87
2023/11/11 13:19:24;;;;;;;1.50;1.40;;;5.80;99.90;;;;;;1907165;75;25267;-87
2023/11/11 13:22:13;;;;;;;1.20;1.20;;;5.80;99.90;;;;;;1901358;75;25305;-87
2023/11/11 13:25:03;;;;;;;1.60;1.50;;;5.70;99.90;;;;;;1910387;74;25302;-88
2023/11/11 13:27:51;;;;;;;1.90;1.80;;;5.60;99.90;;;;;;1919908;74;25287;-88
2023/11/11 13:30:40;;;;;;;2.00;1.70;;;5.60;99.90;;;;;;1909938;74;25250;-88
2023/11/11 13:33:28;;;;;;;1.83;1.70;;;5.70;99.90;;;;;;1903086;74;25239;-88
2023/11/11 13:36:17;;;;;;;3.23;1.80;;;5.80;99.90;;;;;;1896639;74;25428;-88
2023/11/11 13:39:19;;;;;;;1.70;1.60;;;5.80;99.90;;;;;;1916558;74;25367;-88
2023/11/11 13:41:57;;;;;;;1.83;1.73;;;5.70;99.90;;;;;;1908470;74;25414;-88
2023/11/11 13:47:26;;;;;;;2.97;1.80;;;5.60;99.90;;;;;;1907095;74;27809;-87
2023/11/11 13:50:16;;;;;;;2.20;2.00;;;5.60;99.90;;;;;;1846394;76;25248;-87
2023/11/11 14:06:32;;;;;;;2.50;2.20;;;5.50;99.90;;;;;;1934421;72;27641;-87
2023/11/11 14:09:16;;;;;;;5.23;2.90;;;5.50;99.90;;;;;;1916851;73;25671;-88
2023/11/11 14:12:07;;;;;;;3.67;2.90;;;5.50;99.90;;;;;;1902612;73;25220;-88
2023/11/11 14:14:58;;;;;;;3.33;2.77;;;5.40;99.90;;;;;;1855825;76;25351;-89
2023/11/11 14:17:47;;;;;;;3.90;3.20;;;5.40;99.90;;;;;;1838324;76;25288;-88
2023/11/11 14:23:21;;;;;;;4.17;2.80;;;5.40;99.90;;;;;;1941724;72;27189;-87
2023/11/11 14:29:00;;;;;;;3.47;2.60;;;5.60;99.90;;;;;;1949063;72;27104;-87
2023/11/11 14:31:49;;;;;;;6.07;3.47;;;5.60;99.90;;;;;;1927243;73;25721;-87
2023/11/11 14:34:37;;;;;;;8.33;3.60;;;5.60;99.90;;;;;;1915814;73;25216;-87
2023/11/11 14:37:26;;;;;;;8.27;4.47;;;5.70;99.90;;;;;;1877957;75;25245;-87
2023/11/11 14:40:16;;;;;;;5.00;3.80;;;5.70;99.90;;;;;;1914810;73;25260;-87
2023/11/11 14:43:06;;;;;;;5.90;3.77;;;5.60;99.90;;;;;;1911300;73;25310;-87
2023/11/11 14:45:57;;;;;;;5.13;3.10;;;5.60;99.90;;;;;;1906756;73;25904;-87
2023/11/11 14:48:46;;;;;;;3.80;2.70;;;5.50;99.90;;;;;;1894186;73;25255;-88
2023/11/11 14:51:35;;;;;;;5.90;3.13;;;5.50;99.90;;;;;;1896388;73;25279;-87
2023/11/11 14:54:24;;;;;;;6.00;3.07;;;5.50;99.90;;;;;;1942228;73;25206;-87
2023/11/11 14:57:13;;;;;;;5.43;3.00;;;5.60;99.90;;;;;;1898113;73;25220;-87
2023/11/11 15:00:02;;;;;;;6.37;3.40;;;5.50;99.90;;;;;;1887712;73;25264;-87
2023/11/11 15:02:51;;;;;;;5.97;3.40;;;5.50;99.90;;;;;;1922783;73;25285;-87
2023/11/11 15:08:31;;;;;;;4.50;2.70;;;5.50;99.90;;;;;;1938494;72;26957;-87
2023/11/11 15:11:19;;;;;;;8.33;2.90;;;5.50;99.90;;;;;;1941450;73;25919;-87
2023/11/11 15:16:47;;;;;;;4.83;3.03;;;5.60;99.90;;;;;;1938414;72;27689;-87
2023/11/11 15:19:35;;;;;;;4.77;3.17;;;5.70;99.90;;;;;;1845864;76;25704;-87
2023/11/11 15:22:24;;;;;;;12.23;3.50;;;5.60;99.90;;;;;;1845625;76;25216;-87
2023/11/11 15:25:14;;;;;;;6.67;3.30;;;5.40;99.90;;;;;;1886366;73;25215;-84
2023/11/11 15:28:04;;;;;;;7.17;3.50;;;5.30;99.90;;;;;;1865292;76;25795;-87
2023/11/11 15:30:54;;;;;;;6.70;3.33;;;5.40;99.90;;;;;;1819397;76;25479;-87
2023/11/11 15:33:42;;;;;;;6.47;3.37;;;5.60;99.90;;;;;;1938392;73;25205;-87
2023/11/11 15:36:30;;;;;;;15.93;10.60;;;5.70;99.90;;;;;;1849925;76;25260;-88
2023/11/11 15:39:22;;;;;;;12.77;7.20;;;5.60;99.90;;;;;;1867180;76;25236;-87
2023/11/11 15:42:10;;;;;;;9.57;4.63;;;5.60;99.90;;;;;;1896047;75;25246;-88
2023/11/11 15:45:00;;;;;;;13.63;3.47;;;5.70;99.90;;;;;;1880065;75;25205;-88
2023/11/11 15:47:49;;;;;;;14.83;3.57;;;5.70;99.90;;;;;;1898708;75;25340;-87
2023/11/11 15:50:38;;;;;;;8.07;3.40;;;5.50;99.90;;;;;;1896782;75;25867;-87
2023/11/11 15:56:07;;;;;;;12.87;3.93;;;5.30;99.90;;;;;;1932290;72;27135;-87
2023/11/11 16:01:43;;;;;;;15.60;4.73;;;5.40;99.90;;;;;;1942403;72;28233;-87
2023/11/11 16:04:32;;;;;;;13.83;4.60;;;5.30;99.90;;;;;;1923941;73;25227;-87
2023/11/11 16:07:20;;;;;;;14.40;5.03;;;5.30;99.90;;;;;;1915593;73;25567;-87
2023/11/11 16:10:10;;;;;;;10.60;5.60;;;5.30;99.90;;;;;;1939186;73;25474;-87
2023/11/11 16:12:59;;;;;;;8.40;4.70;;;5.30;99.90;;;;;;1930264;73;25341;-88
2023/11/11 16:15:49;;;;;;;8.13;4.43;;;5.40;99.90;;;;;;1930942;73;25224;-88
2023/11/11 16:18:39;;;;;;;7.53;4.10;;;5.50;99.90;;;;;;1927833;73;25856;-88
2023/11/11 16:21:27;;;;;;;8.57;4.70;;;5.60;99.90;;;;;;1920340;73;26474;-88
2023/11/11 16:24:19;;;;;;;10.43;6.07;;;5.50;99.90;;;;;;1929260;73;25329;-88
2023/11/11 16:29:47;;;;;;;13.07;6.00;;;5.40;99.90;;;;;;1943065;72;27177;-87
2023/11/11 16:32:37;;;;;;;13.50;6.13;;;5.40;99.90;;;;;;1890602;75;25230;-87
2023/11/11 16:35:27;;;;;;;44.47;18.70;;;5.40;99.90;;;;;;1895073;75;25214;-87
2023/11/11 16:38:15;;;;;;;15.47;7.63;;;5.40;99.90;;;;;;1876914;75;25366;-87
2023/11/11 16:41:06;;;;;;;31.00;15.53;;;5.30;99.90;;;;;;1890654;75;25758;-87
2023/11/11 16:43:55;;;;;;;6.20;3.77;;;5.10;99.90;;;;;;1851049;76;25357;-87
2023/11/11 16:46:44;;;;;;;161.30;63.33;;;5.20;99.90;;;;;;1862616;75;25224;-87
2023/11/11 16:49:33;;;;;;;23.20;10.47;;;5.20;99.90;;;;;;1870486;75;25251;-87
2023/11/11 16:52:22;;;;;;;12.23;6.47;;;5.10;99.90;;;;;;1855462;75;25247;-87
2023/11/11 16:55:12;;;;;;;19.27;9.70;;;5.10;99.90;;;;;;1874507;75;25315;-87
2023/11/11 16:58:00;;;;;;;24.60;9.77;;;5.20;99.90;;;;;;1874714;75;25576;-88
2023/11/11 17:00:48;;;;;;;12.37;4.93;;;5.30;99.90;;;;;;1872212;75;25839;-87
2023/11/11 17:03:38;;;;;;;17.50;5.50;;;5.20;99.90;;;;;;1878067;75;25325;-87
2023/11/11 17:06:26;;;;;;;12.50;4.97;;;5.10;99.90;;;;;;1880794;75;25263;-87
2023/11/11 17:11:57;;;;;;;111.83;40.43;;;5.10;99.90;;;;;;1959243;72;27338;-86
2023/11/11 17:17:36;;;;;;;21.33;6.17;;;5.10;99.90;;;;;;1968715;72;26936;-87
2023/11/11 17:23:05;;;;;;;14.20;6.17;;;5.10;99.90;;;;;;1939971;72;27080;-87
2023/11/11 17:25:53;;;;;;;14.30;7.67;;;5.10;99.90;;;;;;1928796;73;25682;-88
2023/11/11 17:28:42;;;;;;;10.70;6.30;;;5.20;99.90;;;;;;1919922;73;25247;-88
2023/11/11 17:31:30;;;;;;;16.17;4.97;;;5.20;99.90;;;;;;1924690;73;25329;-88
2023/11/11 17:34:19;;;;;;;8.30;4.87;;;5.10;99.90;;;;;;1921385;73;25200;-88
2023/11/11 17:37:08;;;;;;;20.37;7.00;;;5.10;99.90;;;;;;1922338;73;25275;-88